createdAt,value
2022-11-29T00:01:40.793Z,98017.38
2022-11-29T00:04:08.956Z,98017.61
2022-11-29T00:06:37.028Z,98015.48
2022-11-29T00:09:11.960Z,98014.42
2022-11-29T00:12:00.153Z,98011.46
2022-11-29T00:14:28.580Z,98016.18
2022-11-29T00:17:01.220Z,98019.87
2022-11-29T00:19:28.998Z,98012.70
2022-11-29T00:21:56.723Z,98021.11
2022-11-29T00:24:24.496Z,98020.27
2022-11-29T00:26:52.010Z,98016.51
2022-11-29T00:29:19.868Z,98013.55
2022-11-29T00:31:47.627Z,98013.70
2022-11-29T00:34:15.112Z,98016.81
2022-11-29T00:36:42.803Z,98010.09
2022-11-29T00:39:12.055Z,98014.00
2022-11-29T00:41:40.360Z,98015.00
2022-11-29T00:44:09.630Z,98013.08
2022-11-29T00:46:38.093Z,98011.14
2022-11-29T00:49:06.087Z,98006.05
2022-11-29T00:51:33.822Z,97999.13
2022-11-29T00:54:01.844Z,98002.48
2022-11-29T00:56:29.535Z,98005.83
2022-11-29T00:58:57.530Z,97995.76
2022-11-29T01:01:25.150Z,97993.28
2022-11-29T01:03:53.226Z,97992.69
2022-11-29T01:06:21.140Z,97991.61
2022-11-29T01:08:50.225Z,97994.78
2022-11-29T01:11:24.608Z,97990.77
2022-11-29T01:13:56.755Z,97988.13
2022-11-29T01:16:25.954Z,97994.95
2022-11-29T01:18:53.731Z,97989.14
2022-11-29T01:21:23.872Z,97987.55
2022-11-29T01:23:53.470Z,97993.62
2022-11-29T01:26:24.639Z,97995.20
2022-11-29T01:28:55.832Z,97992.28
2022-11-29T01:31:31.582Z,97988.32
2022-11-29T01:34:02.457Z,97990.66
2022-11-29T01:36:30.630Z,97996.72
2022-11-29T01:39:04.205Z,97996.61
2022-11-29T01:41:35.236Z,97998.40
2022-11-29T01:44:14.131Z,97996.26
2022-11-29T01:46:45.284Z,97995.16
2022-11-29T01:49:21.217Z,97988.50
2022-11-29T01:52:02.648Z,97980.82
2022-11-29T01:54:32.580Z,97977.60
2022-11-29T01:57:04.409Z,97972.05
2022-11-29T01:59:34.084Z,97969.12
2022-11-29T02:02:19.191Z,97968.36
2022-11-29T02:04:49.419Z,97969.98
2022-11-29T02:07:17.269Z,97974.22
2022-11-29T02:09:45.093Z,97970.00
2022-11-29T02:12:45.382Z,97972.70
2022-11-29T02:15:42.499Z,97970.33
2022-11-29T02:18:21.731Z,97970.39
2022-11-29T02:21:12.979Z,97969.12
2022-11-29T02:24:18.292Z,97975.47
2022-11-29T02:27:31.198Z,97980.43
2022-11-29T02:30:10.486Z,97977.52
2022-11-29T02:32:51.921Z,97975.06
2022-11-29T02:35:40.260Z,97983.93
2022-11-29T02:38:49.559Z,97984.13
2022-11-29T02:41:37.848Z,97981.37
2022-11-29T02:44:31.560Z,97983.47
2022-11-29T02:47:07.383Z,97986.33
2022-11-29T02:50:18.227Z,97985.25
2022-11-29T02:52:57.322Z,97988.02
2022-11-29T02:55:57.188Z,97988.16
2022-11-29T02:58:30.224Z,97997.34
2022-11-29T03:01:22.814Z,98001.73
2022-11-29T03:03:58.737Z,98010.11
2022-11-29T03:06:57.327Z,98010.52
2022-11-29T03:09:44.720Z,98008.58
2022-11-29T03:12:41.933Z,98010.88
2022-11-29T03:15:36.416Z,98015.55
2022-11-29T03:18:50.906Z,98019.17
2022-11-29T03:21:36.398Z,98018.30
2022-11-29T03:24:15.857Z,98015.61
2022-11-29T03:26:51.727Z,98010.97
2022-11-29T03:29:29.765Z,98001.73
2022-11-29T03:32:05.583Z,98008.33
2022-11-29T03:35:02.862Z,98009.65
2022-11-29T03:38:06.231Z,98009.44
2022-11-29T03:41:02.870Z,98013.54
2022-11-29T03:43:44.967Z,98017.47
2022-11-29T03:46:35.011Z,98018.78
2022-11-29T03:49:17.212Z,98017.98
2022-11-29T03:52:02.734Z,98018.27
2022-11-29T03:55:12.731Z,98023.75
2022-11-29T03:57:57.586Z,98022.44
2022-11-29T04:00:29.699Z,98019.91
2022-11-29T04:03:22.392Z,98015.22
2022-11-29T04:05:58.127Z,98014.14
2022-11-29T04:08:49.194Z,98014.08
2022-11-29T04:11:45.347Z,98014.02
2022-11-29T04:14:47.121Z,98022.17
2022-11-29T04:17:38.430Z,98027.44
2022-11-29T04:20:17.366Z,98030.36
2022-11-29T04:23:05.830Z,98031.09
2022-11-29T04:25:44.545Z,98031.05
2022-11-29T04:28:40.333Z,98030.74
2022-11-29T04:31:33.995Z,98034.21
2022-11-29T04:34:22.394Z,98032.03
2022-11-29T04:37:04.144Z,98033.04
2022-11-29T04:39:52.254Z,98034.59
2022-11-29T04:42:43.439Z,98029.05
2022-11-29T04:45:59.546Z,98031.16
2022-11-29T04:49:14.004Z,98034.08
2022-11-29T04:52:13.746Z,98038.03
2022-11-29T04:54:52.910Z,98039.42
2022-11-29T04:58:14.641Z,98042.05
2022-11-29T05:01:00.566Z,98039.88
2022-11-29T05:03:56.833Z,98041.19
2022-11-29T05:07:04.011Z,98041.98
2022-11-29T05:09:49.448Z,98037.23
2022-11-29T05:12:47.183Z,98023.02
2022-11-29T05:15:29.601Z,98041.26
2022-11-29T05:18:15.016Z,98040.22
2022-11-29T05:21:08.246Z,98038.90
2022-11-29T05:23:56.598Z,98039.42
2022-11-29T05:26:32.664Z,98034.95
2022-11-29T05:29:14.616Z,98033.34
2022-11-29T05:32:28.642Z,98028.63
2022-11-29T05:35:19.814Z,98031.09
2022-11-29T05:38:04.909Z,98030.42
2022-11-29T05:40:53.372Z,98032.88
2022-11-29T05:44:01.008Z,98040.10
2022-11-29T05:46:53.011Z,98037.53
2022-11-29T05:49:46.020Z,98048.18
2022-11-29T05:52:45.208Z,98048.77
2022-11-29T05:55:42.768Z,98043.83
2022-11-29T05:58:30.542Z,98054.66
2022-11-29T06:01:03.564Z,98053.12
2022-11-29T06:03:43.066Z,98050.37
2022-11-29T06:06:40.368Z,98049.95
2022-11-29T06:09:31.220Z,98050.69
2022-11-29T06:12:07.272Z,98051.42
2022-11-29T06:15:08.688Z,98048.05
2022-11-29T06:18:03.265Z,98048.52
2022-11-29T06:20:54.892Z,98046.67
2022-11-29T06:23:42.748Z,98048.43
2022-11-29T06:26:33.276Z,98058.45
2022-11-29T06:29:24.829Z,98051.90
2022-11-29T06:31:57.840Z,98063.87
2022-11-29T06:34:55.154Z,98066.47
2022-11-29T06:37:30.984Z,98062.07
2022-11-29T06:39:59.118Z,98064.53
2022-11-29T06:42:26.854Z,98067.39
2022-11-29T06:44:56.210Z,98066.49
2022-11-29T06:47:31.493Z,98068.34
2022-11-29T06:50:28.987Z,98072.85
2022-11-29T06:53:35.615Z,98074.12
2022-11-29T06:56:26.663Z,98077.88
2022-11-29T06:59:39.847Z,98077.42
2022-11-29T07:02:30.269Z,98079.87
2022-11-29T07:05:24.227Z,98071.40
2022-11-29T07:07:56.583Z,98070.13
2022-11-29T07:10:25.279Z,98073.64
2022-11-29T07:12:53.469Z,98074.20
2022-11-29T07:15:23.272Z,98072.63
2022-11-29T07:18:14.345Z,98071.86
2022-11-29T07:21:06.086Z,98072.15
2022-11-29T07:24:02.662Z,98071.11
2022-11-29T07:27:08.472Z,98069.52
2022-11-29T07:30:02.473Z,98076.16
2022-11-29T07:32:43.647Z,98073.49
2022-11-29T07:35:35.602Z,98075.37
2022-11-29T07:38:39.091Z,98077.77
2022-11-29T07:41:29.818Z,98076.12
2022-11-29T07:44:05.807Z,98075.86
2022-11-29T07:46:33.348Z,98080.09
2022-11-29T07:49:01.224Z,98072.89
2022-11-29T07:51:28.918Z,98080.88
2022-11-29T07:53:56.593Z,98079.81
2022-11-29T07:56:24.378Z,98081.41
2022-11-29T07:58:51.975Z,98072.61
2022-11-29T08:01:19.737Z,98069.95
2022-11-29T08:03:47.550Z,98076.58
2022-11-29T08:06:15.201Z,98076.55
2022-11-29T08:08:44.340Z,98082.71
2022-11-29T08:11:13.222Z,98076.55
2022-11-29T08:13:40.768Z,98068.55
2022-11-29T08:16:08.715Z,98070.39
2022-11-29T08:18:36.597Z,98064.77
2022-11-29T08:21:07.788Z,98069.56
2022-11-29T08:23:35.450Z,98069.81
2022-11-29T08:26:04.099Z,98067.65
2022-11-29T08:28:31.617Z,98063.34
2022-11-29T08:31:05.331Z,98063.05
2022-11-29T08:33:37.410Z,98056.59
2022-11-29T08:36:12.292Z,98055.74
2022-11-29T08:38:40.408Z,98055.73
2022-11-29T08:41:11.478Z,98058.59
2022-11-29T08:43:39.824Z,98055.31
2022-11-29T08:46:10.473Z,98053.67
2022-11-29T08:48:39.607Z,98043.95
2022-11-29T08:51:07.893Z,98045.00
2022-11-29T08:53:42.001Z,98046.55
2022-11-29T08:58:46.100Z,98043.80
2022-11-29T09:01:17.799Z,98045.91
2022-11-29T09:04:04.958Z,98045.06
2022-11-29T09:06:42.548Z,98039.94
2022-11-29T09:09:10.437Z,98039.31
2022-11-29T09:11:38.288Z,98040.38
2022-11-29T09:14:10.261Z,98038.69
2022-11-29T09:16:38.732Z,98032.23
2022-11-29T09:19:07.457Z,98027.08
2022-11-29T09:21:36.270Z,98024.52
2022-11-29T09:24:05.941Z,98020.12
2022-11-29T09:26:37.435Z,98018.72
2022-11-29T09:29:06.549Z,98021.86
2022-11-29T09:31:35.220Z,98013.23
2022-11-29T09:34:02.992Z,98011.50
2022-11-29T09:36:31.504Z,98000.80
2022-11-29T09:39:02.362Z,98002.02
2022-11-29T09:41:56.952Z,98003.50
2022-11-29T09:44:39.115Z,97994.41
2022-11-29T09:47:39.500Z,98001.12
2022-11-29T09:50:40.006Z,97992.52
2022-11-29T09:53:31.101Z,97993.50
2022-11-29T09:56:28.958Z,97988.33
2022-11-29T09:59:08.002Z,97979.60
2022-11-29T10:01:40.452Z,97986.63
2022-11-29T10:04:22.662Z,97985.98
2022-11-29T10:07:01.495Z,97978.58
2022-11-29T10:09:49.902Z,97976.80
2022-11-29T10:12:49.495Z,97975.19
2022-11-29T10:15:27.503Z,97979.23
2022-11-29T10:18:06.766Z,97978.75
2022-11-29T10:20:48.762Z,97971.52
2022-11-29T10:23:36.500Z,97974.88
2022-11-29T10:26:07.077Z,97970.78
2022-11-29T10:28:37.687Z,97973.45
2022-11-29T10:31:24.567Z,97970.23
2022-11-29T10:33:54.222Z,97965.49
2022-11-29T10:36:50.736Z,97968.61
2022-11-29T10:39:27.369Z,97965.96
2022-11-29T10:41:59.748Z,97961.52
2022-11-29T10:44:27.959Z,97962.18
2022-11-29T10:46:56.275Z,97963.96
2022-11-29T10:49:29.806Z,97962.49
2022-11-29T10:51:57.545Z,97956.73
2022-11-29T10:54:43.063Z,97955.98
2022-11-29T10:57:17.871Z,97951.41
2022-11-29T11:00:06.468Z,97954.28
2022-11-29T11:02:37.664Z,97946.97
2022-11-29T11:05:14.760Z,97946.62
2022-11-29T11:07:42.726Z,97950.47
2022-11-29T11:10:27.585Z,97948.51
2022-11-29T11:13:18.778Z,97948.00
2022-11-29T11:16:21.025Z,97955.14
2022-11-29T11:18:57.844Z,97946.66
2022-11-29T11:21:29.036Z,97946.02
2022-11-29T11:24:04.110Z,97951.58
2022-11-29T11:26:44.421Z,97946.09
2022-11-29T11:29:22.965Z,97928.86
2022-11-29T11:31:59.809Z,97945.89
2022-11-29T11:34:34.365Z,97943.12
2022-11-29T11:37:31.636Z,97943.87
2022-11-29T11:40:20.752Z,97941.62
2022-11-29T11:42:52.408Z,97941.75
2022-11-29T11:45:28.949Z,97943.70
2022-11-29T11:48:15.543Z,97942.23
2022-11-29T11:50:53.890Z,97931.99
2022-11-29T11:53:36.908Z,97936.99
2022-11-29T11:56:12.025Z,97928.70
2022-11-29T11:58:48.371Z,97935.09
2022-11-29T12:01:30.140Z,97932.73
2022-11-29T12:04:23.126Z,97929.73
2022-11-29T12:07:02.480Z,97926.85
2022-11-29T12:09:49.822Z,97931.44
2022-11-29T12:12:28.087Z,97925.33
2022-11-29T12:15:17.740Z,97920.75
2022-11-29T12:17:57.587Z,97918.66
2022-11-29T12:20:42.824Z,97921.98
2022-11-29T12:23:48.826Z,97919.95
2022-11-29T12:26:56.574Z,97915.92
2022-11-29T12:29:01.690Z,97912.59
2022-11-29T12:32:02.021Z,97913.61
2022-11-29T12:34:44.672Z,97912.40
2022-11-29T12:37:50.341Z,97915.97
2022-11-29T12:40:48.952Z,97911.76
2022-11-29T12:43:39.824Z,97911.89
2022-11-29T12:46:15.354Z,97910.78
2022-11-29T12:48:57.792Z,97902.86
2022-11-29T12:51:50.877Z,97911.51
2022-11-29T12:55:04.376Z,97911.24
2022-11-29T12:57:49.383Z,97910.22
2022-11-29T13:00:21.927Z,97912.28
2022-11-29T13:03:13.632Z,97915.61
2022-11-29T13:05:55.804Z,97915.18
2022-11-29T13:08:51.438Z,97912.23
2022-11-29T13:11:36.238Z,97908.88
2022-11-29T13:14:48.954Z,97907.63
2022-11-29T13:17:20.651Z,97909.05
2022-11-29T13:19:54.805Z,97906.21
2022-11-29T13:22:55.389Z,97900.66
2022-11-29T13:25:39.845Z,97904.72
2022-11-29T13:28:30.029Z,97894.34
2022-11-29T13:31:09.928Z,97891.48
2022-11-29T13:34:18.356Z,97891.40
2022-11-29T13:37:18.599Z,97898.70
2022-11-29T13:40:13.110Z,97897.23
2022-11-29T13:43:15.685Z,97895.84
2022-11-29T13:46:08.126Z,97894.77
2022-11-29T13:48:53.067Z,97896.02
2022-11-29T13:51:37.844Z,97895.70
2022-11-29T13:54:25.615Z,97896.13
2022-11-29T13:57:08.924Z,97903.25
2022-11-29T13:59:45.736Z,97900.26
2022-11-29T14:02:29.038Z,97901.05
2022-11-29T14:04:56.756Z,97903.09
2022-11-29T14:07:24.330Z,97903.27
2022-11-29T14:10:05.652Z,97911.19
2022-11-29T14:12:55.565Z,97906.77
2022-11-29T14:15:28.867Z,97914.13
2022-11-29T14:18:05.804Z,97915.10
2022-11-29T14:20:45.051Z,97916.02
2022-11-29T14:23:35.246Z,97918.50
2022-11-29T14:26:11.985Z,97920.48
2022-11-29T14:28:40.486Z,97920.57
2022-11-29T14:31:09.257Z,97921.75
2022-11-29T14:33:49.614Z,97929.00
2022-11-29T14:39:46.384Z,97929.14
2022-11-29T14:42:20.769Z,97924.70
2022-11-29T14:45:01.013Z,97931.45
2022-11-29T14:47:38.681Z,97932.31
2022-11-29T14:50:10.016Z,97934.26
2022-11-29T14:52:41.286Z,97930.30
2022-11-29T14:55:22.866Z,97925.02
2022-11-29T14:58:05.514Z,97930.67
2022-11-29T15:00:50.587Z,97929.40
2022-11-29T15:03:41.621Z,97935.87
2022-11-29T15:06:23.782Z,97939.90
2022-11-29T15:09:04.551Z,97942.37
2022-11-29T15:11:52.499Z,97952.80
2022-11-29T15:15:04.049Z,97954.47
2022-11-29T15:18:12.755Z,97958.77
2022-11-29T15:21:03.830Z,97963.06
2022-11-29T15:23:44.026Z,97955.67
2022-11-29T15:26:20.685Z,97960.21
2022-11-29T15:28:48.392Z,97971.19
2022-11-29T15:31:19.725Z,97974.95
2022-11-29T15:33:49.336Z,97975.48
2022-11-29T15:36:22.831Z,97976.83
2022-11-29T15:38:54.680Z,97981.09
2022-11-29T15:41:31.622Z,97987.23
2022-11-29T15:44:02.433Z,97988.58
2022-11-29T15:46:34.031Z,97992.58
2022-11-29T15:49:23.884Z,97992.30
2022-11-29T15:51:59.789Z,97994.97
2022-11-29T15:54:44.453Z,97992.30
2022-11-29T15:57:15.940Z,97993.38
2022-11-29T15:59:55.215Z,97998.40
2022-11-29T16:02:28.331Z,98000.80
2022-11-29T16:05:07.552Z,97998.38
2022-11-29T16:07:36.847Z,98001.55
2022-11-29T16:10:29.195Z,97994.11
2022-11-29T16:12:58.688Z,97989.54
2022-11-29T16:15:30.687Z,97993.27
2022-11-29T16:18:19.534Z,97993.23
2022-11-29T16:21:05.085Z,97990.58
2022-11-29T16:23:41.581Z,97996.39
2022-11-29T16:26:25.696Z,97997.42
2022-11-29T16:28:58.181Z,97984.88
2022-11-29T16:31:37.753Z,98006.17
2022-11-29T16:34:29.874Z,98012.25
2022-11-29T16:37:08.708Z,98014.63
2022-11-29T16:39:39.300Z,98007.14
2022-11-29T16:42:25.721Z,98016.66
2022-11-29T16:48:39.916Z,98023.98
2022-11-29T16:51:14.151Z,98022.86
2022-11-29T16:53:47.884Z,98024.16
2022-11-29T16:56:18.934Z,98031.25
2022-11-29T16:59:25.730Z,98045.55
2022-11-29T17:01:27.666Z,98042.61
2022-11-29T17:03:58.987Z,98042.58
2022-11-29T17:06:29.186Z,98040.93
2022-11-29T17:08:59.111Z,98041.73
2022-11-29T17:11:26.784Z,98040.11
2022-11-29T17:13:54.607Z,98035.56
2022-11-29T17:16:24.811Z,98040.61
2022-11-29T17:18:53.350Z,98050.39
2022-11-29T17:21:30.913Z,98052.25
2022-11-29T17:23:59.100Z,98054.11
2022-11-29T17:26:30.197Z,98048.80
2022-11-29T17:28:59.379Z,98052.75
2022-11-29T17:31:30.430Z,98045.86
2022-11-29T17:34:00.413Z,98044.79
2022-11-29T17:36:30.908Z,98045.55
2022-11-29T17:39:00.271Z,98049.50
2022-11-29T17:41:30.005Z,98059.84
2022-11-29T17:43:58.374Z,98059.02
2022-11-29T17:46:33.611Z,98055.80
2022-11-29T17:49:05.930Z,98060.55
2022-11-29T17:51:54.438Z,98064.52
2022-11-29T17:54:09.882Z,98066.58
2022-11-29T17:56:37.927Z,98067.89
2022-11-29T17:59:06.439Z,98064.95
2022-11-29T18:01:36.146Z,98064.64
2022-11-29T18:04:06.236Z,98070.73
2022-11-29T18:06:39.511Z,98068.02
2022-11-29T18:09:10.161Z,98070.66
2022-11-29T18:11:48.660Z,98072.48
2022-11-29T18:14:22.093Z,98073.51
2022-11-29T18:16:50.414Z,98080.13
2022-11-29T18:19:21.236Z,98082.74
2022-11-29T18:21:52.158Z,98076.88
2022-11-29T18:24:20.022Z,98074.22
2022-11-29T18:26:48.253Z,98073.16
2022-11-29T18:29:17.063Z,98078.69
2022-11-29T18:31:45.654Z,98069.64
2022-11-29T18:34:14.520Z,98073.83
2022-11-29T18:36:46.145Z,98078.30
2022-11-29T18:39:17.576Z,98076.05
2022-11-29T18:41:49.031Z,98073.88
2022-11-29T18:44:21.184Z,98075.91
2022-11-29T18:46:49.323Z,98078.44
2022-11-29T18:49:19.492Z,98082.61
2022-11-29T18:51:49.221Z,98072.45
2022-11-29T18:54:19.078Z,98067.06
2022-11-29T18:56:50.614Z,98074.13
2022-11-29T18:59:19.022Z,98070.31
2022-11-29T19:01:48.569Z,98072.06
2022-11-29T19:04:19.841Z,98071.17
2022-11-29T19:06:48.376Z,98072.44
2022-11-29T19:09:20.527Z,98074.19
2022-11-29T19:11:49.341Z,98068.03
2022-11-29T19:14:18.371Z,98075.34
2022-11-29T19:16:48.956Z,98077.45
2022-11-29T19:19:18.554Z,98071.79
2022-11-29T19:21:47.071Z,98072.84
2022-11-29T19:24:19.218Z,98075.70
2022-11-29T19:26:49.567Z,98077.81
2022-11-29T19:29:17.462Z,98074.31
2022-11-29T19:31:46.696Z,98077.19
2022-11-29T19:34:14.856Z,98082.45
2022-11-29T19:36:43.880Z,98083.47
2022-11-29T19:39:15.288Z,98084.52
2022-11-29T19:41:47.212Z,98079.98
2022-11-29T19:44:15.818Z,98087.89
2022-11-29T19:46:48.329Z,98081.23
2022-11-29T19:49:16.663Z,98083.60
2022-11-29T19:51:44.466Z,98078.84
2022-11-29T19:54:12.687Z,98085.39
2022-11-29T19:56:41.292Z,98085.62
2022-11-29T19:59:10.392Z,98087.19
2022-11-29T20:01:43.106Z,98086.92
2022-11-29T20:04:15.543Z,98083.17
2022-11-29T20:06:43.987Z,98083.95
2022-11-29T20:09:14.007Z,98082.84
2022-11-29T20:11:45.041Z,98079.41
2022-11-29T20:14:14.081Z,98074.89
2022-11-29T20:16:43.235Z,98076.70
2022-11-29T20:19:16.718Z,98091.03
2022-11-29T20:21:48.546Z,98081.20
2022-11-29T20:24:19.037Z,98086.48
2022-11-29T20:26:49.022Z,98079.87
2022-11-29T20:29:20.001Z,98083.82
2022-11-29T20:31:51.235Z,98083.98
2022-11-29T20:34:20.660Z,98081.06
2022-11-29T20:37:09.332Z,98085.56
2022-11-29T20:40:01.167Z,98082.34
2022-11-29T20:42:54.137Z,98083.33
2022-11-29T20:45:24.283Z,98076.97
2022-11-29T20:48:21.453Z,98079.89
2022-11-29T20:50:59.909Z,98080.66
2022-11-29T20:53:38.796Z,98067.78
2022-11-29T20:56:08.779Z,98082.98
2022-11-29T20:58:37.466Z,98080.28
2022-11-29T21:01:07.440Z,98072.56
2022-11-29T21:03:35.728Z,98083.91
2022-11-29T21:06:05.848Z,98083.86
2022-11-29T21:08:34.741Z,98083.30
2022-11-29T21:11:09.811Z,98084.05
2022-11-29T21:13:39.844Z,98081.08
2022-11-29T21:16:13.328Z,98085.04
2022-11-29T21:18:41.645Z,98082.92
2022-11-29T21:21:20.714Z,98088.48
2022-11-29T21:24:04.408Z,98075.84
2022-11-29T21:26:51.341Z,98085.09
2022-11-29T21:29:22.730Z,98085.59
2022-11-29T21:31:53.640Z,98088.81
2022-11-29T21:34:22.018Z,98091.73
2022-11-29T21:36:59.000Z,98098.91
2022-11-29T21:39:33.164Z,98092.05
2022-11-29T21:42:06.003Z,98101.09
2022-11-29T21:44:35.769Z,98100.05
2022-11-29T21:47:04.440Z,98102.16
2022-11-29T21:49:32.083Z,98097.92
2022-11-29T21:52:00.940Z,98097.06
2022-11-29T21:54:30.163Z,98096.00
2022-11-29T21:56:59.712Z,98095.94
2022-11-29T21:59:29.430Z,98098.80
2022-11-29T22:01:57.579Z,98098.52
2022-11-29T22:04:25.482Z,98103.26
2022-11-29T22:06:54.274Z,98102.67
2022-11-29T22:09:22.157Z,98102.09
2022-11-29T22:11:50.171Z,98103.94
2022-11-29T22:14:18.334Z,98101.27
2022-11-29T22:16:53.738Z,98099.89
2022-11-29T22:19:24.014Z,98101.43
2022-11-29T22:21:55.718Z,98104.31
2022-11-29T22:24:27.523Z,98106.10
2022-11-29T22:26:56.223Z,98104.51
2022-11-29T22:29:24.832Z,98102.08
2022-11-29T22:31:58.971Z,98104.72
2022-11-29T22:34:27.853Z,98102.05
2022-11-29T22:36:56.305Z,98099.62
2022-11-29T22:39:24.320Z,98094.53
2022-11-29T22:41:55.009Z,98089.95
2022-11-29T22:44:24.696Z,98090.94
2022-11-29T22:46:52.768Z,98091.67
2022-11-29T22:49:20.461Z,98094.31
2022-11-29T22:51:48.229Z,98092.72
2022-11-29T22:54:18.075Z,98093.52
2022-11-29T22:56:46.520Z,98088.23
2022-11-29T22:59:14.468Z,98086.33
2022-11-29T23:01:42.887Z,98090.54
2022-11-29T23:04:13.637Z,98079.39
2022-11-29T23:06:44.495Z,98076.20
2022-11-29T23:09:16.406Z,98077.80
2022-11-29T23:11:47.913Z,98072.77
2022-11-29T23:14:15.830Z,98075.87
2022-11-29T23:16:43.390Z,98068.47
2022-11-29T23:19:11.984Z,98072.13
2022-11-29T23:21:41.299Z,98070.00
2022-11-29T23:24:09.423Z,98066.04
2022-11-29T23:26:40.410Z,98071.84
2022-11-29T23:29:11.918Z,98077.37
2022-11-29T23:31:40.274Z,98073.10
2022-11-29T23:34:08.702Z,98071.23
2022-11-29T23:36:36.639Z,98068.80
2022-11-29T23:39:09.085Z,98063.25
2022-11-29T23:41:37.156Z,98050.94
2022-11-29T23:44:05.711Z,98063.49
2022-11-29T23:46:34.988Z,98059.75
2022-11-29T23:49:03.034Z,98056.06
2022-11-29T23:51:30.880Z,98058.48
2022-11-29T23:53:58.505Z,98060.09
2022-11-29T23:56:26.460Z,98061.41
2022-11-29T23:58:54.098Z,98059.05
